LPFRLPMA

Guest
Details From LPFR - Faro
To LPMA - Madeira
Flight Number -
Tags generated
Created
Modified
Stats Distance 519 nm / 961 km
Max Altitude 30,900 ft / 9,418 m
Waypoints 7
Social Downloads 10
Likes 0
Share VATSIM

Download

Looking for another format? Having issues loading an existing format? Contact us
Advertisement - Login to hide

Notes

Basic altitude profile: - Ascent Rate: 2500ft/min - Ascent Speed: 250kts - Cruise Altitude: 35000ft - Cruise Speed: 420kts - Descent Rate: 1500ft/min - Descent Speed: 250kts Options: - Use NATs: yes - Use PACOTS: yes - Use low airways: yes - Use high airways: yes

Route

LPFR VFA R47 NARTA UN745 SNT LPMA

ID Type Via Altitude Latitude Longitude Leg Dist Tot Dist Heading (true) Name
O LPFR APT - 0 ft / 0 m 37.01534˚ -7.97233˚ - 0 nm - Faro
VFA VOR - 0 ft / 0 m 37.01352˚ -7.97501˚ 0 nm 0 nm 230° / 230° FARO VOR-DME
NARTA FIX R47 (AWY-LO) 18,500 ft / 5,639 m 36.05639˚ -12.55806˚ 228 nm 228 nm 257° / 254° -
GALPA FIX UN745 (AWY-HI) 30,900 ft / 9,418 m 34.39806˚ -14.73028˚ 145 nm 374 nm 228° / 226° -
RULET FIX UN745 (AWY-HI) 28,200 ft / 8,595 m 34.25167˚ -14.91556˚ 12 nm 387 nm 226° / 226° -
SNT VOR UN745 (AWY-HI) 18,500 ft / 5,639 m 33.09028˚ -16.35056˚ 100 nm 487 nm 226° / 225° PORTO SANTO VOR-DME
O LPMA APT - 0 ft / 0 m 32.69770˚ -16.77445˚ 31 nm 519 nm 222° / 222° Madeira

Altitude Profile

Advertisement - Login to hide

Weather


0- 5 10 15 20 25 30 35+ Temperature / ° C

Clouds and Precipitation
Forecast for 2017-12-13 12:00 UTC. Updated 6 minutes ago

Ground ~20,000 ft ~40,000 ft Winds

LPFR

Details ICAO LPFR (FAO)
Name Faro
Region Portugal
Timezone Europe/Lisbon (UTC+0.0)
Stats Elevation 24 ft / 7 m (AMSL)
Location 37.015336° -7.972327°
Runways 1
Magnetic Variation 1.936° W

METAR

LPFR 130900Z 04005KT 010V130 CAVOK 10/03 Q1028

Decode

TAF

TAF LPFR 130500Z 1306/1406 02005KT CAVOK BECMG 1310/1312 09010KT BECMG 1316/1318 03005KT 9999 SCT035

Decode

Departure Runways

ID Width Length Bearing (true) Bearing (mag) Surface Threshold Offset Overrun Length
10 148 ft / 45 m 8,148 ft / 2,484 m 100.08° 102.02° Asphalt 148 ft / 45 m 0 ft / 0 m
28 148 ft / 45 m 8,148 ft / 2,484 m 280.10° 282.04° Asphalt 148 ft / 45 m 0 ft / 0 m

LPMA

Details ICAO LPMA (FNC)
Name Madeira
Region Portugal
Timezone Atlantic/Madeira (UTC+0.0)
Stats Elevation 192 ft / 59 m (AMSL)
Location 32.697704° -16.774449°
Runways 1
Magnetic Variation 4.982° W

METAR

LPMA 130900Z 02018KT 9999 -RA SCT015 BKN030 17/12 Q1028

Decode

TAF

TAF LPMA 130500Z 1306/1406 02015KT 9999 SCT016 TEMPO 1306/1318 02020G30KT 6000 -RA BKN014

Decode

Destination Runways

ID Width Length Bearing (true) Bearing (mag) Surface Threshold Offset Overrun Length
05 141 ft / 43 m 8,683 ft / 2,647 m 42.98° 47.96° Asphalt 472 ft / 144 m 0 ft / 0 m
23 141 ft / 43 m 8,683 ft / 2,647 m 222.99° 227.97° Asphalt 466 ft / 142 m 0 ft / 0 m

Popular Alternatives